Time;durP1;ratioP1;P1;durP2;ratioP2;P2;SDS_P1;SDS_P2;PMS_P1;PMS_P2;Temp;Humidity;BMP_temperature;BMP_pressure;BME280_temperature;BME280_humidity;BME280_pressure;Samples;Min_cycle;Max_cycle;Signal;HPM_P1;HPM_P2
2022/09/25 00:00:26;;;;;;;5.85;2.20;;;11.20;99.90;;;;;;5017439;28;20104;-74
2022/09/25 00:02:52;;;;;;;9.02;2.60;;;11.10;99.90;;;;;;5036342;28;20041;-74
2022/09/25 00:05:17;;;;;;;5.00;2.15;;;11.10;99.90;;;;;;5047048;28;20358;-74
2022/09/25 00:07:43;;;;;;;7.55;2.20;;;11.10;99.90;;;;;;5048146;28;20100;-74
2022/09/25 00:10:09;;;;;;;7.90;2.20;;;11.10;99.90;;;;;;5044059;28;20452;-74
2022/09/25 00:12:34;;;;;;;5.88;2.50;;;11.00;99.90;;;;;;5029405;28;20028;-74
2022/09/25 00:15:01;;;;;;;7.72;2.42;;;11.10;99.90;;;;;;5017859;28;20022;-75
2022/09/25 00:17:26;;;;;;;8.60;2.33;;;11.00;99.90;;;;;;5011985;28;20018;-75
2022/09/25 00:19:52;;;;;;;9.65;2.38;;;11.00;99.90;;;;;;5015834;28;20574;-74
2022/09/25 00:22:23;;;;;;;6.38;2.25;;;11.00;99.90;;;;;;5010644;28;20049;-74
2022/09/25 00:24:49;;;;;;;5.78;1.90;;;11.00;99.90;;;;;;5029615;28;20017;-74
2022/09/25 00:27:15;;;;;;;6.30;2.25;;;11.00;99.90;;;;;;5024640;28;20030;-74
2022/09/25 00:29:41;;;;;;;5.18;2.10;;;11.00;99.90;;;;;;5027108;28;20017;-74
2022/09/25 00:32:08;;;;;;;5.30;2.38;;;11.00;99.90;;;;;;5028997;28;20500;-74
2022/09/25 00:34:35;;;;;;;12.25;2.40;;;10.90;99.90;;;;;;5016835;28;20022;-74
2022/09/25 00:37:01;;;;;;;7.75;1.90;;;10.90;99.90;;;;;;5009895;28;20103;-74
2022/09/25 00:39:27;;;;;;;7.07;2.17;;;10.90;99.90;;;;;;5021096;28;20065;-74
2022/09/25 00:41:53;;;;;;;8.68;2.30;;;10.90;99.90;;;;;;5019494;28;20030;-74
2022/09/25 00:44:57;;;;;;;5.88;2.00;;;10.90;99.90;;;;;;5024666;28;20101;-74
2022/09/25 00:47:45;;;;;;;6.47;2.03;;;10.90;99.90;;;;;;5017162;28;20564;-75
2022/09/25 00:50:15;;;;;;;5.20;2.10;;;10.80;99.90;;;;;;5021250;28;20112;-74
2022/09/25 00:52:41;;;;;;;6.20;1.90;;;10.80;99.90;;;;;;5030546;28;20077;-75
2022/09/25 00:55:08;;;;;;;8.02;1.95;;;10.70;99.90;;;;;;5021784;28;20452;-74
2022/09/25 00:57:37;;;;;;;7.63;2.20;;;10.70;99.90;;;;;;5019511;28;20639;-74
2022/09/25 01:00:10;;;;;;;7.40;2.20;;;10.70;99.90;;;;;;5032334;28;20017;-74
2022/09/25 01:02:41;;;;;;;4.53;2.03;;;10.70;99.90;;;;;;5032884;28;20551;-74
2022/09/25 01:05:16;;;;;;;7.95;2.30;;;10.70;99.90;;;;;;5033105;28;20496;-74
2022/09/25 01:07:45;;;;;;;5.78;1.95;;;10.60;99.90;;;;;;5031868;28;20072;-74
2022/09/25 01:10:12;;;;;;;7.32;2.33;;;10.60;99.90;;;;;;5018428;28;20386;-75
2022/09/25 01:12:45;;;;;;;4.93;2.30;;;10.60;99.90;;;;;;5023244;28;20455;-74
2022/09/25 01:15:13;;;;;;;8.13;2.25;;;10.60;99.90;;;;;;5029707;28;20026;-74
2022/09/25 01:17:55;;;;;;;8.90;2.22;;;10.60;99.90;;;;;;5032751;28;20075;-74
2022/09/25 01:20:45;;;;;;;7.18;2.03;;;10.60;99.90;;;;;;5028331;28;20172;-74
2022/09/25 01:23:25;;;;;;;7.68;2.40;;;10.60;99.90;;;;;;5026327;28;20030;-75
2022/09/25 01:26:09;;;;;;;4.40;2.10;;;10.50;99.90;;;;;;5032124;28;20030;-75
2022/09/25 01:28:59;;;;;;;9.38;2.22;;;10.50;99.90;;;;;;5025465;28;20033;-75
2022/09/25 01:31:46;;;;;;;6.35;2.10;;;10.50;99.90;;;;;;5029277;28;20021;-75
2022/09/25 01:34:18;;;;;;;5.65;2.00;;;10.50;99.90;;;;;;5032018;28;20100;-75
2022/09/25 01:36:56;;;;;;;5.80;2.00;;;10.50;99.90;;;;;;5017626;28;20448;-76
2022/09/25 01:39:32;;;;;;;2.95;2.15;;;10.50;99.90;;;;;;5031790;28;20083;-75
2022/09/25 01:42:10;;;;;;;6.78;2.10;;;10.40;99.90;;;;;;5028082;28;20029;-74
2022/09/25 01:44:45;;;;;;;7.53;1.95;;;10.40;99.90;;;;;;5019303;28;20100;-75
2022/09/25 01:47:19;;;;;;;8.18;2.30;;;10.40;99.90;;;;;;5018360;28;20054;-74
2022/09/25 01:49:49;;;;;;;7.32;2.03;;;10.40;99.90;;;;;;5018923;28;20037;-76
2022/09/25 01:52:24;;;;;;;6.43;2.17;;;10.40;99.90;;;;;;5032095;28;20366;-75
2022/09/25 01:54:52;;;;;;;;;;;10.40;99.90;;;;;;5019637;28;20104;-75
2022/09/25 01:57:24;;;;;;;7.07;2.08;;;10.30;99.90;;;;;;5032046;28;19954;-75
2022/09/25 01:59:58;;;;;;;8.30;2.00;;;10.30;99.90;;;;;;5030806;28;20086;-75
2022/09/25 02:02:33;;;;;;;6.70;2.22;;;10.30;99.90;;;;;;5032047;28;20470;-75
2022/09/25 02:05:10;;;;;;;5.90;1.80;;;10.30;99.90;;;;;;5018066;28;20500;-74
2022/09/25 02:07:43;;;;;;;5.15;1.85;;;10.30;99.90;;;;;;5031605;28;20393;-75
2022/09/25 02:10:16;;;;;;;7.25;2.22;;;10.30;99.90;;;;;;5031807;28;20043;-75
2022/09/25 02:12:46;;;;;;;7.72;2.40;;;10.30;99.90;;;;;;5032084;28;20025;-75
2022/09/25 02:15:28;;;;;;;9.85;2.25;;;10.40;99.90;;;;;;5018018;28;20033;-75
2022/09/25 02:21:00;;;;;;;8.80;2.22;;;10.40;99.90;;;;;;5031484;28;20086;-75
2022/09/25 02:23:39;;;;;;;6.03;2.15;;;10.50;99.90;;;;;;5030646;28;20113;-75
2022/09/25 02:26:13;;;;;;;8.07;2.00;;;10.50;99.90;;;;;;5031133;28;20040;-75
2022/09/25 02:28:39;;;;;;;5.43;2.30;;;10.60;99.90;;;;;;5031387;28;20026;-75
2022/09/25 02:31:09;;;;;;;6.35;2.60;;;10.70;99.90;;;;;;5027859;28;20029;-75
2022/09/25 02:33:34;;;;;;;6.85;2.95;;;10.70;99.90;;;;;;5031612;28;20040;-75
2022/09/25 02:36:02;;;;;;;10.73;3.88;;;10.70;99.90;;;;;;5030483;28;20501;-75
2022/09/25 02:38:30;;;;;;;9.88;3.63;;;10.80;99.90;;;;;;5030279;28;20017;-75
2022/09/25 02:41:14;;;;;;;8.63;3.92;;;10.80;99.90;;;;;;5027001;28;20385;-75
2022/09/25 02:43:49;;;;;;;10.60;3.45;;;10.80;99.90;;;;;;5023833;28;20589;-75
2022/09/25 02:46:26;;;;;;;5.35;2.75;;;10.90;99.90;;;;;;5016561;28;20042;-75
2022/09/25 02:49:17;;;;;;;7.70;3.00;;;10.80;99.90;;;;;;5030475;28;20080;-75
2022/09/25 02:51:56;;;;;;;7.95;2.85;;;10.90;99.90;;;;;;5030161;28;20121;-75
2022/09/25 02:54:32;;;;;;;7.32;2.63;;;10.90;99.90;;;;;;5030261;28;20513;-75
2022/09/25 02:57:19;;;;;;;8.35;2.40;;;10.90;99.90;;;;;;5030267;28;20036;-75
2022/09/25 02:59:51;;;;;;;4.82;1.95;;;10.90;99.90;;;;;;5028833;28;20155;-75
2022/09/25 03:02:19;;;;;;;6.47;2.00;;;11.00;99.90;;;;;;5030291;28;20117;-74
2022/09/25 03:04:47;;;;;;;3.22;1.88;;;11.00;99.90;;;;;;5029712;28;20152;-75
2022/09/25 03:07:15;;;;;;;3.20;1.80;;;11.00;99.90;;;;;;5030053;28;20057;-75
2022/09/25 03:09:45;;;;;;;4.97;1.80;;;11.10;99.90;;;;;;5030705;28;20013;-75
2022/09/25 03:12:11;;;;;;;8.65;2.00;;;11.10;99.90;;;;;;5030335;28;20060;-75
2022/09/25 03:14:37;;;;;;;5.40;2.10;;;11.10;99.90;;;;;;5030032;28;20435;-76
2022/09/25 03:17:05;;;;;;;7.05;2.08;;;11.10;99.90;;;;;;5030118;28;20045;-76
2022/09/25 03:19:33;;;;;;;9.98;2.38;;;11.20;99.90;;;;;;5029989;28;20021;-76
2022/09/25 03:21:59;;;;;;;7.75;2.05;;;11.20;99.90;;;;;;5016591;28;20449;-76
2022/09/25 03:24:25;;;;;;;7.50;2.10;;;11.20;99.90;;;;;;5020489;28;20560;-76
2022/09/25 03:26:55;;;;;;;8.98;2.10;;;11.30;99.90;;;;;;5023465;28;20038;-76
2022/09/25 03:29:20;;;;;;;6.90;2.20;;;11.30;99.90;;;;;;5020420;28;20022;-76
2022/09/25 03:31:47;;;;;;;10.95;2.13;;;11.40;99.90;;;;;;5015466;28;20080;-76
2022/09/25 03:34:15;;;;;;;7.38;1.88;;;11.40;99.90;;;;;;5030350;28;20354;-76
2022/09/25 03:36:45;;;;;;;6.07;1.90;;;11.40;99.90;;;;;;5029750;28;20456;-76
2022/09/25 03:39:10;;;;;;;7.90;2.20;;;11.50;99.90;;;;;;5016136;28;20108;-76
2022/09/25 03:41:36;;;;;;;5.97;2.08;;;11.50;99.90;;;;;;5020148;28;20105;-76
2022/09/25 03:44:03;;;;;;;7.88;1.92;;;11.60;99.90;;;;;;5037957;28;20470;-76
2022/09/25 03:46:31;;;;;;;7.78;2.20;;;11.60;99.90;;;;;;5017650;28;20065;-76
2022/09/25 03:48:57;;;;;;;14.98;2.42;;;11.60;99.90;;;;;;5025058;28;20033;-77
2022/09/25 03:51:24;;;;;;;8.18;1.88;;;11.60;99.90;;;;;;5024467;28;20054;-76
2022/09/25 03:53:50;;;;;;;7.80;2.10;;;11.70;99.90;;;;;;5010595;28;20028;-76
2022/09/25 03:56:19;;;;;;;8.23;2.22;;;11.60;99.90;;;;;;5023939;28;20382;-75
2022/09/25 03:58:45;;;;;;;6.80;2.42;;;11.60;99.90;;;;;;5020634;28;20025;-75
2022/09/25 04:01:12;;;;;;;8.07;2.22;;;11.60;99.90;;;;;;5013073;28;20018;-76
2022/09/25 04:03:38;;;;;;;8.98;2.30;;;11.60;99.90;;;;;;5019239;28;20445;-76
2022/09/25 04:06:08;;;;;;;6.93;2.20;;;11.60;99.90;;;;;;5014466;28;20029;-76
2022/09/25 04:08:35;;;;;;;8.65;2.15;;;11.70;99.90;;;;;;5017658;28;20033;-76
2022/09/25 04:11:01;;;;;;;7.38;2.38;;;11.60;99.90;;;;;;5015711;28;20071;-75
2022/09/25 04:13:34;;;;;;;7.55;2.25;;;11.60;99.90;;;;;;5028900;28;20018;-76
2022/09/25 04:16:02;;;;;;;8.38;2.40;;;11.60;99.90;;;;;;5030185;28;20099;-76
2022/09/25 04:18:30;;;;;;;8.52;2.30;;;11.60;99.90;;;;;;5028707;28;20385;-75
2022/09/25 04:20:56;;;;;;;6.90;2.42;;;11.60;99.90;;;;;;5029067;28;20691;-75
2022/09/25 04:23:22;;;;;;;8.25;2.28;;;11.50;99.90;;;;;;5028517;28;20369;-76
2022/09/25 04:25:48;;;;;;;8.80;2.35;;;11.50;99.90;;;;;;5013671;28;20026;-76
2022/09/25 04:28:14;;;;;;;8.43;2.10;;;11.50;99.90;;;;;;5059636;28;20026;-76
2022/09/25 04:30:39;;;;;;;9.48;2.20;;;11.40;99.90;;;;;;5033989;28;20078;-76
2022/09/25 04:35:49;;;;;;;11.70;2.55;;;11.40;99.90;;;;;;5014019;28;20400;-76
2022/09/25 04:38:15;;;;;;;8.15;2.30;;;11.30;99.90;;;;;;5027187;28;20053;-76
2022/09/25 04:40:40;;;;;;;6.43;2.17;;;11.30;99.90;;;;;;5030147;28;20100;-76
2022/09/25 04:43:06;;;;;;;6.28;2.38;;;11.30;99.90;;;;;;5040834;28;20041;-76
2022/09/25 04:45:35;;;;;;;6.45;2.45;;;11.30;99.90;;;;;;5024258;28;20057;-76
2022/09/25 04:48:02;;;;;;;5.18;2.30;;;11.20;99.90;;;;;;5033724;28;20045;-76
2022/09/25 04:50:28;;;;;;;5.03;2.10;;;11.20;99.90;;;;;;5033222;28;20050;-76
2022/09/25 04:52:56;;;;;;;6.60;2.10;;;11.10;99.90;;;;;;5032568;28;20049;-76
2022/09/25 04:55:23;;;;;;;5.18;2.10;;;11.10;99.90;;;;;;5023205;28;20056;-76
2022/09/25 04:58:01;;;;;;;9.38;2.58;;;11.10;99.90;;;;;;5028722;28;20025;-76
2022/09/25 05:00:30;;;;;;;6.68;2.05;;;11.10;99.90;;;;;;5021995;28;20425;-76
2022/09/25 05:02:56;;;;;;;4.78;2.00;;;11.10;99.90;;;;;;5030268;28;20026;-75
2022/09/25 05:05:26;;;;;;;7.50;2.00;;;11.10;99.90;;;;;;5023784;28;20057;-76
2022/09/25 05:07:52;;;;;;;2.45;1.70;;;11.10;99.90;;;;;;5028634;28;20037;-75
2022/09/25 05:10:19;;;;;;;6.85;1.80;;;11.10;99.90;;;;;;5033224;28;20026;-76
2022/09/25 05:12:46;;;;;;;7.38;2.10;;;11.10;99.90;;;;;;5032618;28;20417;-76
2022/09/25 05:15:12;;;;;;;4.15;1.80;;;11.10;99.90;;;;;;5013206;28;20022;-76
2022/09/25 05:17:37;;;;;;;6.28;2.00;;;11.10;99.90;;;;;;5024113;28;20046;-76
2022/09/25 05:20:03;;;;;;;3.08;1.58;;;11.10;99.90;;;;;;5019022;28;20021;-76
2022/09/25 05:22:29;;;;;;;5.20;1.60;;;11.10;99.90;;;;;;5032434;28;20124;-76
2022/09/25 05:24:54;;;;;;;6.60;1.70;;;11.10;99.90;;;;;;5018004;28;20041;-76
2022/09/25 05:27:21;;;;;;;4.32;1.45;;;11.10;99.90;;;;;;5039140;28;20036;-76
2022/09/25 05:29:48;;;;;;;3.33;1.30;;;11.10;99.90;;;;;;5037296;28;20021;-76
2022/09/25 05:32:14;;;;;;;5.50;1.55;;;11.10;99.90;;;;;;5032196;28;20116;-76
2022/09/25 05:34:39;;;;;;;8.48;1.60;;;11.10;99.90;;;;;;5031618;28;20504;-76
2022/09/25 05:37:05;;;;;;;3.03;1.50;;;11.20;99.90;;;;;;5031674;28;20037;-77
2022/09/25 05:39:31;;;;;;;2.38;1.55;;;11.20;99.90;;;;;;5027981;28;20026;-76
2022/09/25 05:41:56;;;;;;;6.25;1.58;;;11.20;99.90;;;;;;5030341;28;20022;-76
2022/09/25 05:44:23;;;;;;;4.78;1.75;;;11.20;99.90;;;;;;5017797;28;20429;-76
2022/09/25 05:46:49;;;;;;;4.22;1.30;;;11.10;99.90;;;;;;5032280;28;20033;-76
2022/09/25 05:49:15;;;;;;;4.85;1.67;;;11.10;99.90;;;;;;5017718;28;20083;-76
2022/09/25 05:51:40;;;;;;;6.13;1.80;;;11.20;99.90;;;;;;5022897;28;20046;-76
2022/09/25 05:54:06;;;;;;;3.25;1.60;;;11.10;99.90;;;;;;5024833;28;20478;-76
2022/09/25 05:56:32;;;;;;;5.18;2.00;;;11.10;99.90;;;;;;5027350;28;20079;-76
2022/09/25 05:58:58;;;;;;;8.02;2.45;;;11.20;99.90;;;;;;5027975;28;20026;-76
2022/09/25 06:01:24;;;;;;;7.75;3.03;;;11.20;99.90;;;;;;5031582;28;20014;-75
2022/09/25 06:03:50;;;;;;;6.15;2.28;;;11.10;99.90;;;;;;5029184;28;20026;-75
2022/09/25 06:06:16;;;;;;;5.47;2.00;;;11.20;99.90;;;;;;5027104;28;20524;-76
2022/09/25 06:08:41;;;;;;;7.68;2.20;;;11.20;99.90;;;;;;5031963;28;20477;-76
2022/09/25 06:11:07;;;;;;;9.50;2.33;;;11.20;99.90;;;;;;5039845;28;20025;-76
2022/09/25 06:13:35;;;;;;;8.90;2.33;;;11.20;99.90;;;;;;5035838;28;20028;-76
2022/09/25 06:16:02;;;;;;;8.38;2.47;;;11.20;99.90;;;;;;5036592;28;20029;-76
2022/09/25 06:18:27;;;;;;;6.30;2.25;;;11.30;99.90;;;;;;5039147;28;20506;-76
2022/09/25 06:21:00;;;;;;;8.45;2.22;;;11.40;99.90;;;;;;5032140;28;20045;-76
2022/09/25 06:23:26;;;;;;;10.73;2.40;;;11.40;99.90;;;;;;5032313;28;20426;-76
2022/09/25 06:25:51;;;;;;;8.98;1.77;;;11.50;99.90;;;;;;5036901;28;20025;-76
2022/09/25 06:28:17;;;;;;;6.38;1.90;;;11.50;99.90;;;;;;5028665;28;20085;-77
2022/09/25 06:30:44;;;;;;;8.32;1.90;;;11.60;99.90;;;;;;5045299;28;20674;-76
2022/09/25 06:33:12;;;;;;;4.88;1.70;;;11.60;99.90;;;;;;5034833;28;20029;-76
2022/09/25 06:35:45;;;;;;;7.03;1.77;;;11.60;99.90;;;;;;5034271;28;20146;-76
2022/09/25 06:38:12;;;;;;;9.23;2.20;;;11.70;99.90;;;;;;5019625;28;20029;-77
2022/09/25 06:40:39;;;;;;;5.28;1.70;;;11.70;99.90;;;;;;5033945;28;20033;-76
2022/09/25 06:43:06;;;;;;;6.22;1.70;;;11.80;99.90;;;;;;5038179;28;20512;-76
2022/09/25 06:45:33;;;;;;;7.55;1.85;;;11.80;99.90;;;;;;5027324;28;20121;-76
2022/09/25 06:48:04;;;;;;;10.63;2.00;;;11.80;99.90;;;;;;5034620;28;20017;-76
2022/09/25 06:50:46;;;;;;;4.43;1.83;;;11.90;99.90;;;;;;5034960;28;20041;-77
2022/09/25 06:53:13;;;;;;;9.85;2.10;;;11.90;99.90;;;;;;5028768;28;20437;-76
2022/09/25 06:55:39;;;;;;;5.53;1.75;;;12.00;99.90;;;;;;5032461;28;20441;-76
2022/09/25 06:58:07;;;;;;;5.05;1.75;;;12.00;99.90;;;;;;5029770;28;20478;-75
2022/09/25 07:00:33;;;;;;;7.32;1.88;;;12.10;99.90;;;;;;5030078;28;20076;-76
2022/09/25 07:05:46;;;;;;;6.97;2.10;;;12.20;99.90;;;;;;5037839;28;20055;-75
2022/09/25 07:08:13;;;;;;;6.85;1.90;;;12.20;99.90;;;;;;5039167;28;20474;-76
2022/09/25 07:10:39;;;;;;;6.75;2.03;;;12.30;99.90;;;;;;5038141;28;20029;-76
2022/09/25 07:13:05;;;;;;;5.72;2.03;;;12.30;99.90;;;;;;5037447;28;20626;-73
2022/09/25 07:15:31;;;;;;;5.45;2.40;;;12.40;99.90;;;;;;5036047;28;20077;-73
2022/09/25 07:17:56;;;;;;;10.73;2.50;;;12.50;99.90;;;;;;5035234;28;20401;-73
2022/09/25 07:20:22;;;;;;;10.50;2.58;;;12.50;99.90;;;;;;5035651;28;20671;-75
2022/09/25 07:22:48;;;;;;;7.60;1.98;;;12.60;99.90;;;;;;5033112;28;20466;-74
2022/09/25 07:25:13;;;;;;;4.82;1.95;;;12.60;99.90;;;;;;5031867;28;20541;-74
2022/09/25 07:27:39;;;;;;;9.60;2.20;;;12.70;99.90;;;;;;5032948;28;20155;-75
2022/09/25 07:30:07;;;;;;;11.18;1.95;;;12.70;99.90;;;;;;5040699;28;20024;-76
2022/09/25 07:32:33;;;;;;;6.95;1.85;;;12.80;99.90;;;;;;5038186;28;20039;-77
2022/09/25 07:34:59;;;;;;;7.20;2.00;;;12.80;99.90;;;;;;5028390;28;20022;-75
2022/09/25 07:37:24;;;;;;;7.00;2.33;;;12.90;99.90;;;;;;5024648;28;20400;-75
2022/09/25 07:39:50;;;;;;;7.43;2.10;;;12.90;99.90;;;;;;5039636;28;20017;-74
2022/09/25 07:42:16;;;;;;;6.63;2.03;;;12.90;99.90;;;;;;5042307;28;20090;-76
2022/09/25 07:44:42;;;;;;;4.88;1.70;;;13.00;99.90;;;;;;5042544;28;20461;-75
2022/09/25 07:47:07;;;;;;;4.72;1.63;;;13.00;99.90;;;;;;5032705;28;20033;-76
2022/09/25 07:49:34;;;;;;;8.95;2.03;;;13.00;99.90;;;;;;5029644;28;20025;-76
2022/09/25 07:52:01;;;;;;;8.75;1.77;;;13.10;99.90;;;;;;5029552;28;20055;-76
2022/09/25 07:54:27;;;;;;;7.43;1.80;;;13.10;99.90;;;;;;5031735;28;20034;-77
2022/09/25 07:56:53;;;;;;;5.68;1.58;;;13.20;99.90;;;;;;5027615;28;20032;-76
2022/09/25 07:59:18;;;;;;;6.57;1.80;;;13.20;99.90;;;;;;5037597;28;20025;-76
2022/09/25 08:01:44;;;;;;;6.65;1.92;;;13.30;99.90;;;;;;5042818;28;20020;-76
2022/09/25 08:04:10;;;;;;;8.13;2.08;;;13.30;99.90;;;;;;5048742;28;20040;-76
2022/09/25 08:06:37;;;;;;;9.30;2.20;;;13.40;99.90;;;;;;5027980;28;20175;-76
2022/09/25 08:09:03;;;;;;;8.82;2.00;;;13.50;99.90;;;;;;5029620;28;20074;-77
2022/09/25 08:11:30;;;;;;;6.30;1.73;;;13.50;99.90;;;;;;5030323;28;20022;-77
2022/09/25 08:13:56;;;;;;;7.75;1.73;;;13.60;99.90;;;;;;5038993;28;20029;-77
2022/09/25 08:16:22;;;;;;;10.05;1.70;;;13.70;99.90;;;;;;5028347;28;20037;-77
2022/09/25 08:18:49;;;;;;;6.28;1.58;;;13.80;99.90;;;;;;5028814;28;20029;-77
2022/09/25 08:21:17;;;;;;;3.60;1.60;;;14.00;99.90;;;;;;5031611;28;20025;-77
2022/09/25 08:23:48;;;;;;;6.15;1.52;;;14.20;99.90;;;;;;5044763;28;20037;-77
2022/09/25 08:26:14;;;;;;;4.60;1.38;;;14.40;99.90;;;;;;5039987;28;20034;-76
2022/09/25 08:28:40;;;;;;;4.93;1.30;;;14.60;99.90;;;;;;5030111;28;20033;-77
2022/09/25 08:31:07;;;;;;;6.40;1.30;;;14.80;99.90;;;;;;5033482;28;20022;-75
2022/09/25 08:33:33;;;;;;;6.32;1.17;;;15.00;99.90;;;;;;5022665;28;20056;-75
2022/09/25 08:36:01;;;;;;;5.68;1.25;;;15.10;99.90;;;;;;5028939;28;20028;-70
2022/09/25 08:38:28;;;;;;;7.72;1.20;;;15.30;99.90;;;;;;5037070;28;20052;-72
2022/09/25 08:41:06;;;;;;;5.53;1.10;;;15.40;99.90;;;;;;5023155;28;20088;-72
2022/09/25 08:43:36;;;;;;;9.20;1.17;;;15.40;99.90;;;;;;5038607;28;20041;-72
2022/09/25 08:49:03;;;;;;;6.13;1.05;;;15.40;99.90;;;;;;5021824;28;20037;-73
2022/09/25 08:51:33;;;;;;;5.63;1.00;;;15.40;99.90;;;;;;5029092;28;20045;-73
2022/09/25 08:53:59;;;;;;;4.28;0.88;;;15.40;99.90;;;;;;5029616;28;20018;-71
2022/09/25 08:56:28;;;;;;;6.20;1.23;;;15.40;99.90;;;;;;5034363;28;20381;-74
2022/09/25 08:59:22;;;;;;;7.38;1.23;;;15.40;99.90;;;;;;5043026;28;20013;-73
2022/09/25 09:02:13;;;;;;;10.40;1.20;;;15.30;99.90;;;;;;5040450;28;20021;-74
2022/09/25 09:04:57;;;;;;;6.68;1.13;;;15.40;99.90;;;;;;5042382;28;20045;-74
2022/09/25 09:07:30;;;;;;;4.95;1.15;;;15.60;99.90;;;;;;5028991;28;20502;-73
2022/09/25 09:10:01;;;;;;;6.55;1.00;;;15.70;99.90;;;;;;5029948;28;20061;-73
2022/09/25 09:12:36;;;;;;;9.65;1.35;;;15.80;99.90;;;;;;5033683;28;20477;-74
2022/09/25 09:15:20;;;;;;;3.35;1.05;;;15.90;99.90;;;;;;5033197;28;20065;-74
2022/09/25 09:17:45;;;;;;;7.35;1.55;;;16.10;99.90;;;;;;5031545;28;20068;-78
2022/09/25 09:20:32;;;;;;;10.00;1.30;;;16.20;99.90;;;;;;5031974;28;20445;-76
2022/09/25 09:22:59;;;;;;;8.35;1.13;;;16.20;99.90;;;;;;5036644;28;20045;-77
2022/09/25 09:25:36;;;;;;;6.20;1.10;;;16.30;99.90;;;;;;5029234;28;20025;-77
2022/09/25 09:28:39;;;;;;;4.95;0.80;;;16.40;99.90;;;;;;5036044;28;20049;-77
2022/09/25 09:31:22;;;;;;;6.22;1.08;;;16.60;99.90;;;;;;5020290;28;20029;-75
2022/09/25 09:34:56;;;;;;;6.90;1.20;;;16.70;99.90;;;;;;5036159;28;20025;-76
2022/09/25 09:37:30;;;;;;;5.90;1.33;;;16.80;99.90;;;;;;5029953;28;20410;-75
2022/09/25 09:40:29;;;;;;;5.60;1.23;;;17.00;99.90;;;;;;5040111;28;20060;-76
2022/09/25 09:43:23;;;;;;;9.27;1.10;;;17.10;99.90;;;;;;5045615;28;20033;-76
2022/09/25 09:46:04;;;;;;;6.18;1.10;;;17.30;99.90;;;;;;5032582;28;20045;-76
2022/09/25 09:49:05;;;;;;;5.18;1.00;;;17.40;99.90;;;;;;5034425;28;20024;-75
2022/09/25 09:51:42;;;;;;;6.40;0.90;;;17.60;99.90;;;;;;5029167;28;20063;-76
2022/09/25 09:54:30;;;;;;;6.45;1.20;;;17.70;99.90;;;;;;5035622;28;20485;-75
2022/09/25 09:56:58;;;;;;;5.32;0.90;;;17.90;99.90;;;;;;5033911;28;20040;-75
2022/09/25 09:59:42;;;;;;;4.80;0.85;;;18.00;99.90;;;;;;5034195;28;20033;-75
2022/09/25 10:02:29;;;;;;;4.95;0.70;;;18.20;99.90;;;;;;5045099;28;20035;-75
2022/09/25 10:04:56;;;;;;;3.55;0.70;;;18.30;99.90;;;;;;5039417;28;20195;-75
2022/09/25 10:07:23;;;;;;;2.85;0.90;;;18.30;99.90;;;;;;5011484;28;20615;-75
2022/09/25 10:09:49;;;;;;;3.72;0.80;;;18.40;99.90;;;;;;5026045;28;20025;-75
2022/09/25 10:12:43;;;;;;;5.25;0.70;;;18.40;99.90;;;;;;5038191;28;20034;-77
2022/09/25 10:15:19;;;;;;;5.60;0.90;;;18.40;99.90;;;;;;5041166;28;20037;-76
2022/09/25 10:17:45;;;;;;;3.65;0.70;;;18.50;99.90;;;;;;5045329;28;20040;-76
2022/09/25 10:20:18;;;;;;;4.20;1.00;;;18.50;99.90;;;;;;5038727;28;20553;-75
2022/09/25 10:22:46;;;;;;;4.90;0.90;;;18.60;99.90;;;;;;5041048;28;20036;-77
2022/09/25 10:25:11;;;;;;;3.05;0.90;;;18.60;99.90;;;;;;5046366;28;20033;-77
2022/09/25 10:27:40;;;;;;;3.28;0.75;;;18.50;99.90;;;;;;5044300;28;20021;-77
2022/09/25 10:30:06;;;;;;;2.10;0.82;;;18.50;99.90;;;;;;5041189;28;20495;-77
2022/09/25 10:32:40;;;;;;;5.75;1.17;;;18.40;99.90;;;;;;5034549;28;20541;-77
2022/09/25 10:35:16;;;;;;;4.28;0.80;;;18.20;99.90;;;;;;5027464;28;20029;-78
2022/09/25 10:37:42;;;;;;;4.32;0.98;;;18.00;99.90;;;;;;5022525;28;20022;-76
2022/09/25 10:40:30;;;;;;;3.90;1.00;;;17.90;99.90;;;;;;5027917;28;20017;-77
2022/09/25 10:43:06;;;;;;;3.70;0.98;;;17.80;99.90;;;;;;5047523;28;20037;-76
2022/09/25 10:45:35;;;;;;;3.97;0.70;;;17.70;99.90;;;;;;5024035;28;20026;-76
2022/09/25 10:51:07;;;;;;;3.08;1.00;;;17.60;99.90;;;;;;5050466;28;20040;-77
2022/09/25 10:53:33;;;;;;;2.75;1.48;;;17.50;99.90;;;;;;5039891;28;20585;-74
2022/09/25 10:56:11;;;;;;;3.53;0.80;;;17.50;99.90;;;;;;5036578;28;20147;-77
2022/09/25 10:58:39;;;;;;;2.97;0.60;;;17.60;99.90;;;;;;5039563;28;20452;-76
2022/09/25 11:01:11;;;;;;;4.50;0.73;;;17.60;99.90;;;;;;5033329;28;20025;-76
2022/09/25 11:03:47;;;;;;;4.25;0.60;;;17.80;99.90;;;;;;5042329;28;20171;-76
2022/09/25 11:06:21;;;;;;;1.80;0.65;;;17.90;99.90;;;;;;5038099;28;20018;-76
2022/09/25 11:09:06;;;;;;;4.38;0.90;;;17.90;99.90;;;;;;5028175;28;20071;-76
2022/09/25 11:11:32;;;;;;;2.78;0.75;;;17.90;99.90;;;;;;5024954;28;20470;-76
2022/09/25 11:14:02;;;;;;;3.00;0.80;;;17.80;99.90;;;;;;5028647;28;20018;-76
2022/09/25 11:16:58;;;;;;;5.75;0.82;;;17.80;99.90;;;;;;5029249;28;20028;-75
2022/09/25 11:19:33;;;;;;;3.15;0.70;;;17.80;99.90;;;;;;5018890;28;20109;-75
2022/09/25 11:22:03;;;;;;;4.38;0.70;;;17.80;99.90;;;;;;5057127;28;20025;-75
2022/09/25 11:24:41;;;;;;;2.28;0.75;;;17.70;99.90;;;;;;5029249;28;20025;-75
2022/09/25 11:27:16;;;;;;;2.35;0.65;;;17.60;99.90;;;;;;5030669;28;20037;-75
2022/09/25 11:29:46;;;;;;;2.22;0.60;;;17.50;99.90;;;;;;5030764;28;20053;-75
2022/09/25 11:32:18;;;;;;;2.65;0.70;;;17.50;99.90;;;;;;5017463;28;20029;-75
2022/09/25 11:35:16;;;;;;;2.53;0.68;;;17.60;99.90;;;;;;5032194;28;20052;-74
2022/09/25 11:37:45;;;;;;;3.25;0.50;;;17.70;99.90;;;;;;5038518;28;20029;-74
2022/09/25 11:43:56;;;;;;;3.95;0.55;;;17.90;99.90;;;;;;5036971;28;20040;-75
2022/09/25 11:46:40;;;;;;;5.25;0.80;;;18.00;99.90;;;;;;5034125;28;20121;-76
2022/09/25 11:49:25;;;;;;;1.52;0.45;;;18.10;99.90;;;;;;5021136;28;20113;-76
2022/09/25 11:52:04;;;;;;;1.45;0.50;;;18.10;99.90;;;;;;5019073;28;20077;-76
2022/09/25 11:54:53;;;;;;;3.35;0.45;;;18.30;99.90;;;;;;5029612;28;20030;-76
2022/09/25 11:57:34;;;;;;;2.78;0.40;;;18.40;99.90;;;;;;5019938;28;20030;-77
2022/09/25 12:00:09;;;;;;;2.75;0.38;;;18.40;99.90;;;;;;5036869;28;20025;-76
2022/09/25 12:03:03;;;;;;;1.55;0.30;;;18.30;99.90;;;;;;5042246;28;20020;-76
2022/09/25 12:05:56;;;;;;;0.88;0.30;;;18.40;99.90;;;;;;5043543;28;20454;-76
2022/09/25 12:08:23;;;;;;;1.85;0.40;;;18.50;99.90;;;;;;5040459;28;20035;-76
2022/09/25 12:11:04;;;;;;;1.92;0.70;;;18.30;99.90;;;;;;5042611;28;20107;-75
2022/09/25 12:13:44;;;;;;;2.35;0.65;;;18.20;99.90;;;;;;5048389;28;20017;-77
2022/09/25 12:16:25;;;;;;;5.95;0.60;;;18.10;99.90;;;;;;5039238;28;20075;-77
2022/09/25 12:19:15;;;;;;;1.45;0.40;;;18.10;99.90;;;;;;5025793;28;20381;-77
2022/09/25 12:22:01;;;;;;;1.92;0.43;;;18.20;99.90;;;;;;5037556;28;20022;-76
2022/09/25 12:25:10;;;;;;;1.05;0.38;;;18.20;99.90;;;;;;5033669;28;20061;-76
2022/09/25 12:28:19;;;;;;;3.13;0.65;;;18.30;99.90;;;;;;5038145;28;20037;-75
2022/09/25 12:31:04;;;;;;;0.85;0.60;;;18.30;99.90;;;;;;5036846;28;20531;-76
2022/09/25 12:34:03;;;;;;;2.10;0.50;;;18.30;99.90;;;;;;5034363;28;20040;-76
2022/09/25 12:36:39;;;;;;;1.75;0.50;;;18.40;99.30;;;;;;5042235;28;20849;-75
2022/09/25 12:39:33;;;;;;;1.13;0.50;;;18.40;98.40;;;;;;5038007;28;20025;-75
2022/09/25 12:42:10;;;;;;;1.40;0.40;;;18.40;98.90;;;;;;5028297;28;20376;-75
2022/09/25 12:44:57;;;;;;;1.13;0.40;;;18.50;99.50;;;;;;5039693;28;20020;-75
2022/09/25 12:47:32;;;;;;;1.08;0.50;;;18.60;99.90;;;;;;5041295;28;20096;-77
2022/09/25 12:50:08;;;;;;;3.77;0.60;;;18.80;99.60;;;;;;5046581;28;20028;-77
2022/09/25 12:52:45;;;;;;;1.85;0.50;;;19.00;99.70;;;;;;5045606;28;20119;-76
2022/09/25 12:55:24;;;;;;;2.55;0.40;;;19.10;99.60;;;;;;5039310;28;20355;-76
2022/09/25 12:58:02;;;;;;;1.70;0.40;;;19.30;99.60;;;;;;5034208;28;20037;-75
2022/09/25 13:00:31;;;;;;;2.22;0.50;;;19.40;99.70;;;;;;5041342;28;20037;-75
2022/09/25 13:03:12;;;;;;;2.42;0.50;;;19.30;99.10;;;;;;5027704;28;20033;-75
2022/09/25 13:05:49;;;;;;;2.05;0.50;;;19.20;99.00;;;;;;5031436;28;20025;-75
2022/09/25 13:08:33;;;;;;;3.63;0.50;;;19.10;99.20;;;;;;5047888;28;20037;-75
2022/09/25 13:11:04;;;;;;;3.20;0.60;;;18.90;99.60;;;;;;5042895;28;20104;-75
2022/09/25 13:13:47;;;;;;;2.65;0.50;;;18.70;99.90;;;;;;5044416;28;20503;-75
2022/09/25 13:16:14;;;;;;;3.65;0.60;;;18.50;99.90;;;;;;5048509;28;20021;-77
2022/09/25 13:19:05;;;;;;;2.67;0.47;;;18.40;99.90;;;;;;5049323;28;20108;-76
2022/09/25 13:21:35;;;;;;;0.77;0.47;;;18.30;99.90;;;;;;5047909;28;20056;-75
2022/09/25 13:24:08;;;;;;;1.52;0.50;;;18.10;99.90;;;;;;5042681;28;20132;-75
2022/09/25 13:26:47;;;;;;;3.42;0.40;;;18.20;99.90;;;;;;5046171;28;20048;-76
2022/09/25 13:29:29;;;;;;;1.65;0.35;;;18.30;99.90;;;;;;5038894;28;20037;-76